Flight Track Log - Related Links

Times and Time Zones

All times are in EDT time to prevent confusion due to time zone crossing. See the DAL268 flight status page for this flight to view local times or setup timezone preferences in your user account.


Time Position Orientation Groundspeed Altitude Reporting Facility
EDT Latitude Longitude Course Direction KTS MPH feet Rate Location/Type
Sun 02:34:51 PM 37.6331 -122.3630 31° Northeast 171 197 700  Level FlightAware ADS-B
Sun 02:35:00 PM 37.6389 -122.3570 39° Northeast 175 201 1,100 2,308 Climbing FlightAware ADS-B
Sun 02:35:04 PM 37.6414 -122.3540 44° Northeast 177 204 1,200 1,800 Climbing FlightAware ADS-B
Sun 02:35:20 PM 37.6498 -122.3420 49° Northeast 189 217 1,700 1,935 Climbing FlightAware ADS-B
Sun 02:35:35 PM 37.6595 -122.3280 49° Northeast 212 244 2,200 1,742 Climbing FlightAware ADS-B
Sun 02:35:51 PM 37.6704 -122.3130 47° Northeast 234 269 2,600 1,355 Climbing FlightAware ADS-B
Sun 02:36:06 PM 37.6819 -122.2970 48° Northeast 259 298 2,900 2,129 Climbing FlightAware ADS-B
Sun 02:36:22 PM 37.6946 -122.2780 50° Northeast 266 306 3,700 3,097 Climbing FlightAware ADS-B
Sun 02:36:37 PM 37.7071 -122.2600 49° Northeast 270 311 4,500 3,188 Climbing FlightAware ADS-B
Sun 02:36:54 PM 37.7211 -122.2410 47° Northeast 272 313 5,400 3,086 Climbing FlightAware ADS-B
Sun 02:37:12 PM 37.7367 -122.2180 49° Northeast 275 316 6,300 2,923 Climbing FlightAware ADS-B
Sun 02:37:33 PM 37.7541 -122.1930 49° Northeast 282 325 7,300 2,842 Climbing FlightAware ADS-B
Sun 02:37:50 PM 37.7692 -122.1710 49° Northeast 291 335 8,100 3,086 Climbing FlightAware ADS-B
Sun 02:38:08 PM 37.7847 -122.1480 50° Northeast 288 331 9,100 3,176 Climbing FlightAware ADS-B
Sun 02:38:24 PM 37.7994 -122.1280 47° Northeast 288 331 9,900 2,298 Climbing FlightAware ADS-B
Sun 02:38:55 PM 37.8277 -122.0880 48° Northeast 310 357 10,900 1,770 Climbing FlightAware ADS-B
Sun 02:39:25 PM 37.8582 -122.0460 47° Northeast 336 387 11,700 1,475 Climbing FlightAware ADS-B
Sun 02:39:56 PM 37.8920 -121.9990 48° Northeast 367 422 12,400 1,500 Climbing FlightAware ADS-B
Sun 02:40:05 PM 37.9017 -121.9820 54° Northeast 372 428 12,700 1,765 Climbing FlightAware ADS-B
Sun 02:40:13 PM 37.9087 -121.9680 58° Northeast 376 433 12,900 2,000 Climbing FlightAware ADS-B
Sun 02:40:23 PM 37.9162 -121.9470 66° East 379 436 13,300 2,455 Climbing FlightAware ADS-B
Sun 02:40:35 PM 37.9221 -121.9220 73° East 383 441 13,800 2,217 Climbing FlightAware ADS-B
Sun 02:41:09 PM 37.9350 -121.8470 78° East 391 450 15,000 2,206 Climbing FlightAware ADS-B
Sun 02:41:43 PM 37.9483 -121.7690 78° East 394 453 16,300 2,215 Climbing FlightAware ADS-B
Sun 02:42:14 PM 37.9599 -121.6990 78° East 406 467 17,400 2,164 Climbing FlightAware ADS-B
Sun 02:42:44 PM 37.9716 -121.6290 78° East 413 475 18,500 2,066 Climbing FlightAware ADS-B
Sun 02:43:15 PM 37.9842 -121.5530 78° East 421 484 19,500 1,810 Climbing FlightAware ADS-B
Sun 02:43:47 PM 37.9970 -121.4770 78° East 427 491 20,400 1,826 Climbing FlightAware ADS-B
Sun 02:44:24 PM 38.0122 -121.3850 78° East 433 498 21,600 1,886 Climbing FlightAware ADS-B
Sun 02:44:57 PM 38.0260 -121.3020 78° East 439 505 22,600 1,826 Climbing FlightAware ADS-B
Sun 02:45:33 PM 38.0408 -121.2110 78° East 443 510 23,700 1,671 Climbing FlightAware ADS-B
Sun 02:46:16 PM 38.0589 -121.1000 78° East 450 518 24,800 1,463 Climbing FlightAware ADS-B
Sun 02:46:55 PM 38.0770 -121.0000 77° East 456 525 25,700 1,440 Climbing FlightAware ADS-B
Sun 02:47:31 PM 38.0980 -120.9070 74° East 460 529 26,600 1,324 Climbing FlightAware ADS-B
Sun 02:48:03 PM 38.1170 -120.8260 73° East 466 536 27,200 1,235 Climbing FlightAware ADS-B
Sun 02:48:39 PM 38.1410 -120.7300 72° East 469 540 28,000 1,342 Climbing FlightAware ADS-B
Sun 02:49:19 PM 38.1660 -120.6250 73° East 471 542 28,900 1,541 Climbing FlightAware ADS-B
Sun 02:49:53 PM 38.1870 -120.5370 73° East 465 535 29,900 1,886 Climbing FlightAware ADS-B
Sun 02:49:54 PM 38.1888 -120.5288 74° East 466 536 30,000 1,588 Climbing FlightAware ADS-B
Sun 02:50:27 PM 38.2080 -120.4500 73° East 462 532 30,800 1,433 Climbing FlightAware ADS-B
Sun 02:51:01 PM 38.2290 -120.3590 74° East 461 531 31,600 1,324 Climbing FlightAware ADS-B
Sun 02:51:35 PM 38.2500 -120.2710 73° East 462 532 32,300 1,075 Climbing FlightAware ADS-B
Sun 02:52:08 PM 38.2684 -120.1920 73° East 465 535 32,800 1,048 Climbing FlightAware ADS-B
Sun 02:52:38 PM 38.2880 -120.1060 74° East 465 535 33,400 1,200 Climbing FlightAware ADS-B
Sun 02:52:53 PM 38.2907 -120.0970 69° East 465 535 33,700 1,385 Climbing FlightAware ADS-B
Sun 02:53:43 PM 38.3280 -119.9360 73° East 457 526 34,900 1,310 Climbing FlightAware ADS-B
Sun 02:54:20 PM 38.3500 -119.8430 73° East 454 522 35,600 1,054 Climbing FlightAware ADS-B
Sun 02:54:57 PM 38.3720 -119.7470 74° East 453 521 36,200 943 Climbing FlightAware ADS-B
Sun 02:55:30 PM 38.3785 -119.7178 74° East 453 521 36,700 762 Climbing FlightAware ADS-B
Sun 02:56:00 PM 38.4084 -119.5874 74° East 453 521 37,000 300 Climbing FlightAware ADS-B
Sun 02:56:30 PM 38.4264 -119.5088 74° East 454 522 37,000  Level FlightAware ADS-B
Sun 02:57:06 PM 38.4470 -119.4177 74° East 453 521 37,000  Level FlightAware ADS-B
Sun 02:57:37 PM 38.4645 -119.3408 74° East 452 520 37,000  Level FlightAware ADS-B
Sun 02:58:18 PM 38.4886 -119.2340 74° East 450 518 37,000  Level FlightAware ADS-B
Sun 02:58:48 PM 38.5035 -119.1560 76° East 452 520 37,000  Level FlightAware ADS-B
Sun 02:59:19 PM 38.5132 -119.0759 81° East 453 521 37,000  Level FlightAware ADS-B
Sun 02:59:54 PM 38.5220 -118.9818 83° East 454 522 37,000  Level FlightAware ADS-B
Sun 03:00:24 PM 38.5203 -118.9008 91° East 456 525 37,000  Level FlightAware ADS-B
Sun 03:00:58 PM 38.5160 -118.8140 94° East 455 524 37,000  Level FlightAware ADS-B
Sun 03:01:34 PM 38.5110 -118.7130 94° East 455 524 37,000  Level FlightAware ADS-B
Sun 03:02:20 PM 38.5070 -118.6190 93° East 455 524 37,000  Level FlightAware ADS-B
Sun 03:02:57 PM 38.5010 -118.4970 94° East 455 524 37,000  Level FlightAware ADS-B
Sun 03:03:30 PM 38.4960 -118.4040 94° East 455 524 37,000  Level FlightAware ADS-B
Sun 03:04:05 PM 38.4920 -118.3110 93° East 457 526 37,000  Level FlightAware ADS-B
Sun 03:04:40 PM 38.4870 -118.2150 94° East 456 525 37,000  Level FlightAware ADS-B
Sun 03:05:13 PM 38.4900 -118.1260 88° East 452 520 37,000  Level FlightAware ADS-B
Sun 03:05:52 PM 38.5040 -118.0290 80° East 451 519 37,000  Level FlightAware ADS-B
Sun 03:06:27 PM 38.5200 -117.9330 78° East 450 518 37,000  Level FlightAware ADS-B
Sun 03:06:55 PM 38.5300 -117.8710 78° East 450 518 37,000  Level FlightAware ADS-B
Sun 03:07:32 PM 38.5440 -117.7890 78° East 450 518 37,000  Level FlightAware ADS-B
Sun 03:08:08 PM 38.5570 -117.7090 78° East 450 518 37,000  Level FlightAware ADS-B
Sun 03:08:33 PM 38.5660 -117.6540 78° East 450 518 37,000  Level FlightAware ADS-B
Sun 03:09:07 PM 38.5790 -117.5790 77° East 450 518 37,000  Level FlightAware ADS-B
Sun 03:09:43 PM 38.5920 -117.4990 78° East 450 518 37,000  Level FlightAware ADS-B
Sun 03:10:20 PM 38.6060 -117.4170 78° East 450 518 37,000  Level FlightAware ADS-B
Sun 03:10:54 PM 38.6180 -117.3420 78° East 450 518 37,000  Level FlightAware ADS-B
Sun 03:11:34 PM 38.6330 -117.2530 78° East 450 518 37,000  Level FlightAware ADS-B
Sun 03:12:11 PM 38.6470 -117.1710 78° East 450 518 37,000  Level FlightAware ADS-B
Sun 03:12:47 PM 38.6600 -117.0910 78° East 450 518 37,000  Level FlightAware ADS-B
Sun 03:13:21 PM 38.6720 -117.0160 78° East 450 518 37,000  Level FlightAware ADS-B
Sun 03:13:57 PM 38.6860 -116.9360 77° East 450 518 37,000  Level FlightAware ADS-B
Sun 03:14:33 PM 38.6990 -116.8560 78° East 450 518 37,000  Level FlightAware ADS-B
Sun 03:15:09 PM 38.7120 -116.7760 78° East 450 518 37,000  Level FlightAware ADS-B
Sun 03:15:44 PM 38.7250 -116.6990 78° East 450 518 37,000  Level FlightAware ADS-B
Sun 03:16:22 PM 38.7390 -116.6140 78° East 450 518 37,000  Level FlightAware ADS-B
Sun 03:17:18 PM 38.7928 -116.2422 78° East 455 524 37,000  Level Salt Lake Center
Sun 03:18:20 PM 38.8164 -116.0811 79° East 458 527 37,000  Level Salt Lake Center
Sun 03:19:22 PM 38.8419 -115.9214 78° East 457 526 37,000  Level Salt Lake Center
Sun 03:20:24 PM 38.8653 -115.7608 79° East 458 527 37,000  Level Salt Lake Center
Sun 03:21:26 PM 38.8889 -115.6008 79° East 457 526 37,000  Level Salt Lake Center
Sun 03:22:28 PM 38.9178 -115.4081 79° East 458 527 37,000  Level Salt Lake Center
Sun 03:23:30 PM 38.9375 -115.2714 79° East 456 525 37,000  Level Salt Lake Center
Sun 03:24:32 PM 38.9667 -115.0753 79° East 463 533 37,000  Level Salt Lake Center
Sun 03:25:34 PM 38.9897 -114.9133 80° East 462 532 37,000  Level Salt Lake Center
Sun 03:31:36 PM 39.1259 -113.9110 80° East 471 542 37,000  Level FlightAware ADS-B
Sun 03:32:08 PM 39.1367 -113.8287 80° East 472 543 37,000  Level FlightAware ADS-B
Sun 03:32:39 PM 39.1487 -113.7370 80° East 472 543 37,000  Level FlightAware ADS-B
Sun 03:33:10 PM 39.1594 -113.6545 80° East 470 541 37,000  Level FlightAware ADS-B
Sun 03:33:40 PM 39.1696 -113.5756 81° East 470 541 37,000  Level FlightAware ADS-B
Sun 03:34:13 PM 39.1820 -113.4790 81° East 471 542 37,000  Level FlightAware ADS-B
Sun 03:34:44 PM 39.1924 -113.3979 81° East 470 541 37,000  Level FlightAware ADS-B
Sun 03:35:25 PM 39.2070 -113.2821 81° East 472 543 37,000  Level FlightAware ADS-B
Sun 03:35:59 PM 39.2191 -113.1859 81° East 472 543 37,000  Level FlightAware ADS-B
Sun 03:36:30 PM 39.2294 -113.1033 81° East 472 543 37,000  Level FlightAware ADS-B
Sun 03:36:48 PM 39.2365 -113.0460 81° East 473 544 37,000  Level FlightAware ADS-B
Sun 03:37:05 PM 39.2416 -113.0048 81° East 473 544 37,000  Level FlightAware ADS-B
Sun 03:37:19 PM 39.2469 -112.9620 81° East 474 545 37,000  Level FlightAware ADS-B
Sun 03:37:36 PM 39.2527 -112.9147 81° East 474 545 37,000  Level FlightAware ADS-B
Sun 03:37:49 PM 39.2573 -112.8780 81° East 474 545 37,000  Level FlightAware ADS-B
Sun 03:38:06 PM 39.2628 -112.8322 81° East 475 547 37,000  Level FlightAware ADS-B
Sun 03:38:24 PM 39.2690 -112.7810 81° East 476 548 37,000  Level FlightAware ADS-B
Sun 03:38:36 PM 39.2727 -112.7506 81° East 476 548 37,000  Level FlightAware ADS-B
Sun 03:39:02 PM 39.2820 -112.6740 81° East 477 549 37,000  Level FlightAware ADS-B
Sun 03:39:08 PM 39.2835 -112.6613 81° East 477 549 37,000  Level FlightAware ADS-B
Sun 03:39:33 PM 39.2925 -112.5870 81° East 476 548 37,000  Level FlightAware ADS-B
Sun 03:39:40 PM 39.2947 -112.5684 82° East 476 548 37,000  Level FlightAware ADS-B
Sun 03:39:55 PM 39.2986 -112.5260 83° East 478 550 37,000  Level FlightAware ADS-B
Sun 03:40:13 PM 39.3009 -112.4744 87° East 483 556 37,000  Level FlightAware ADS-B
Sun 03:40:21 PM 39.3007 -112.4510 91° East 485 558 37,000  Level FlightAware ADS-B
Sun 03:40:47 PM 39.2971 -112.3764 94° East 487 560 37,000  Level FlightAware ADS-B
Sun 03:40:53 PM 39.2961 -112.3590 94° East 487 560 37,000  Level FlightAware ADS-B
Sun 03:41:18 PM 39.2926 -112.3027 95° East 488 562 37,000  Level FlightAware ADS-B
Sun 03:41:23 PM 39.2907 -112.2710 95° East 486 559 37,000  Level FlightAware ADS-B
Sun 03:41:48 PM 39.2867 -112.2021 94° East 486 559 37,000  Level FlightAware ADS-B
Sun 03:41:54 PM 39.2856 -112.1830 94° East 485 558 37,000  Level FlightAware ADS-B
Sun 03:42:21 PM 39.2813 -112.1054 94° East 484 557 37,000  Level FlightAware ADS-B
Sun 03:42:26 PM 39.2805 -112.0910 94° East 484 557 37,000  Level FlightAware ADS-B
Sun 03:42:54 PM 39.2763 -112.0099 94° East 482 555 37,000  Level FlightAware ADS-B
Sun 03:42:56 PM 39.2759 -112.0040 95° East 482 555 37,000  Level FlightAware ADS-B
Sun 03:43:26 PM 39.2716 -111.9210 94° East 482 555 37,000  Level FlightAware ADS-B
Sun 03:43:27 PM 39.2714 -111.9160 93° East 482 555 37,000  Level FlightAware ADS-B
Sun 03:43:56 PM 39.2670 -111.8331 94° East 482 555 37,000  Level FlightAware ADS-B
Sun 03:43:58 PM 39.2666 -111.8280 95° East 482 555 37,000  Level FlightAware ADS-B
Sun 03:44:30 PM 39.2618 -111.7380 94° East 481 554 37,000  Level FlightAware ADS-B
Sun 03:44:37 PM 39.2605 -111.7140 94° East 481 554 37,000  Level FlightAware ADS-B
Sun 03:45:00 PM 39.2569 -111.6505 94° East 481 554 37,000  Level FlightAware ADS-B
Sun 03:45:08 PM 39.2556 -111.6260 94° East 481 554 37,000  Level FlightAware ADS-B
Sun 03:45:33 PM 39.2522 -111.5668 94° East 482 555 37,000  Level FlightAware ADS-B
Sun 03:45:45 PM 39.2496 -111.5210 94° East 482 555 37,000  Level FlightAware ADS-B
Sun 03:46:18 PM 39.2442 -111.4270 94° East 484 557 37,000  Level FlightAware ADS-B
Sun 03:46:48 PM 39.2390 -111.3410 94° East 485 558 37,000  Level FlightAware ADS-B
Sun 03:47:19 PM 39.2337 -111.2520 94° East 486 559 37,000  Level FlightAware ADS-B
Sun 03:47:27 PM 39.2327 -111.2358 94° East 488 562 37,000  Level FlightAware ADS-B
Sun 03:47:49 PM 39.2284 -111.1640 94° East 487 560 37,000  Level FlightAware ADS-B
Sun 03:48:36 PM 39.2201 -111.0290 94° East 487 560 37,000  Level FlightAware ADS-B
Sun 03:49:15 PM 39.2140 -110.9310 95° East 486 559 37,000  Level FlightAware ADS-B
Sun 03:50:00 PM 39.2070 -110.8120 94° East 486 559 37,000  Level FlightAware ADS-B
Sun 03:50:38 PM 39.1980 -110.6820 95° East 487 560 37,000  Level FlightAware ADS-B
Sun 03:50:58 PM 39.2105 -110.8760 275° West 490 564 37,000  Level FlightAware ADS-B
Sun 03:51:41 PM 39.1858 -110.4950 95° East 490 564 37,000  Level FlightAware ADS-B
Sun 03:52:12 PM 39.1799 -110.4076 95° East 490 564 37,000  Level FlightAware ADS-B
Sun 03:52:48 PM 39.1747 -110.3308 95° East 490 564 37,000  Level FlightAware ADS-B
Sun 03:53:20 PM 39.1661 -110.2059 95° East 490 564 37,000  Level FlightAware ADS-B
Sun 03:54:20 PM 39.1540 -110.0390 95° East 491 565 37,000  Level FlightAware ADS-B
Sun 03:54:57 PM 39.1470 -109.9280 95° East 494 568 37,000  Level FlightAware ADS-B
Sun 03:55:34 PM 39.1390 -109.8220 96° East 494 568 37,000  Level FlightAware ADS-B
Sun 03:55:56 PM 39.1339 -109.7537 95° East 494 568 37,000  Level FlightAware ADS-B
Sun 03:56:26 PM 39.1274 -109.6643 95° East 495 570 37,000  Level FlightAware ADS-B
Sun 03:56:56 PM 39.1209 -109.5775 95° East 496 571 37,000  Level FlightAware ADS-B
Sun 03:57:06 PM 39.1187 -109.5480 96° East 496 571 37,000  Level FlightAware ADS-B (AAL / EKYT)
Sun 03:57:37 PM 39.1118 -109.4559 95° East 495 570 37,000  Level FlightAware ADS-B
Sun 03:58:07 PM 39.1053 -109.3714 96° East 495 570 37,000  Level FlightAware ADS-B
Sun 03:58:40 PM 39.0978 -109.2738 96° East 496 571 37,000  Level FlightAware ADS-B
Sun 03:59:34 PM 39.0854 -109.1147 96° East 499 574 37,000  Level FlightAware ADS-B
Sun 04:00:04 PM 39.0784 -109.0262 96° East 499 574 37,000  Level FlightAware ADS-B
Sun 04:00:34 PM 39.0713 -108.9371 96° East 500 575 37,000  Level FlightAware ADS-B
Sun 04:01:04 PM 39.0643 -108.8499 96° East 499 574 37,000  Level FlightAware ADS-B
Sun 04:01:34 PM 39.0591 -108.7589 94° East 497 572 37,000  Level FlightAware ADS-B
Sun 04:02:06 PM 39.0562 -108.6661 92° East 495 570 37,000  Level FlightAware ADS-B
Sun 04:02:39 PM 39.0538 -108.5739 92° East 495 570 37,000  Level FlightAware ADS-B
Sun 04:03:09 PM 39.0514 -108.4810 92° East 496 571 37,000  Level FlightAware ADS-B
Sun 04:03:40 PM 39.0491 -108.3937 92° East 497 572 37,000  Level FlightAware ADS-B (AAL / EKYT)
Sun 04:04:11 PM 39.0464 -108.2985 92° East 498 573 37,000  Level FlightAware ADS-B
Sun 04:04:45 PM 39.0435 -108.1971 92° East 498 573 37,000  Level FlightAware ADS-B
Sun 04:05:15 PM 39.0409 -108.1105 92° East 498 573 37,000  Level FlightAware ADS-B
Sun 04:05:49 PM 39.0377 -108.0086 92° East 498 573 37,000  Level FlightAware ADS-B
Sun 04:06:22 PM 39.0346 -107.9096 92° East 498 573 37,000  Level FlightAware ADS-B
Sun 04:07:01 PM 39.0310 -107.7970 92° East 499 574 37,000  Level FlightAware ADS-B
Sun 04:07:39 PM 39.0270 -107.6840 93° East 499 574 37,000  Level FlightAware ADS-B
Sun 04:08:13 PM 39.0237 -107.5850 92° East 502 578 37,000  Level FlightAware ADS-B
Sun 04:08:43 PM 39.0205 -107.4922 93° East 502 578 37,000  Level FlightAware ADS-B
Sun 04:09:14 PM 39.0173 -107.4058 93° East 501 577 37,000  Level FlightAware ADS-B
Sun 04:09:44 PM 39.0139 -107.3130 93° East 502 578 37,000  Level FlightAware ADS-B
Sun 04:10:15 PM 39.0104 -107.2206 93° East 502 578 37,000  Level FlightAware ADS-B
Sun 04:10:55 PM 39.0058 -107.1002 93° East 501 577 37,000  Level FlightAware ADS-B
Sun 04:11:26 PM 39.0023 -107.0119 93° East 502 578 37,000  Level FlightAware ADS-B
Sun 04:11:59 PM 38.9982 -106.9118 93° East 503 579 37,000  Level FlightAware ADS-B
Sun 04:12:31 PM 38.9946 -106.8219 93° East 504 580 37,000  Level FlightAware ADS-B
Sun 04:13:01 PM 38.9909 -106.7343 93° East 504 580 37,000  Level FlightAware ADS-B
Sun 04:13:31 PM 38.9867 -106.6355 93° East 505 581 37,000  Level FlightAware ADS-B
Sun 04:14:03 PM 38.9827 -106.5435 93° East 505 581 37,000  Level FlightAware ADS-B
Sun 04:14:37 PM 38.9781 -106.4389 93° East 506 582 37,000  Level FlightAware ADS-B
Sun 04:15:08 PM 38.9739 -106.3459 93° East 508 585 37,000  Level FlightAware ADS-B
Sun 04:15:38 PM 38.9698 -106.2569 93° East 509 586 37,000  Level FlightAware ADS-B
Sun 04:16:08 PM 38.9655 -106.1658 93° East 508 585 37,000  Level FlightAware ADS-B
Sun 04:16:39 PM 38.9610 -106.0723 93° East 507 583 37,000  Level FlightAware ADS-B
Sun 04:17:14 PM 38.9560 -105.9690 94° East 510 587 37,000  Level FlightAware ADS-B
Sun 04:17:48 PM 38.9510 -105.8660 94° East 510 587 37,000  Level FlightAware ADS-B
Sun 04:18:22 PM 38.9460 -105.7640 94° East 513 590 37,000  Level FlightAware ADS-B
Sun 04:18:57 PM 38.9410 -105.6610 94° East 513 590 37,000  Level FlightAware ADS-B
Sun 04:19:17 PM 38.9372 -105.5953 94° East 515 593 37,000  Level FlightAware ADS-B (AAL / EKYT)
Sun 04:20:05 PM 38.9300 -105.4510 94° East 514 592 37,000  Level FlightAware ADS-B
Sun 04:20:18 PM 38.9274 -105.4107 95° East 514 592 37,000  Level FlightAware ADS-B (AAL / EKYT)
Sun 04:21:19 PM 38.9180 -105.2290 94° East 512 589 37,000  Level FlightAware ADS-B
Sun 04:21:53 PM 38.9120 -105.1250 94° East 513 590 37,000  Level FlightAware ADS-B
Sun 04:22:26 PM 38.9060 -105.0260 94° East 512 589 37,000  Level FlightAware ADS-B
Sun 04:22:39 PM 38.9058 -105.0016 91° East 512 589 37,000  Level FlightAware ADS-B (GIB / LXGB)
Sun 04:23:22 PM 38.9088 -104.8524 88° East 512 589 37,000  Level FlightAware ADS-B (GIB / LXGB)
Sun 04:23:52 PM 38.9107 -104.7634 88° East 513 590 37,000  Level FlightAware ADS-B (GIB / LXGB)
Sun 04:24:35 PM 38.9124 -104.6304 89° East 515 593 37,000  Level FlightAware ADS-B (AAL / EKYT)
Sun 04:25:24 PM 38.9130 -104.4810 90° East 515 593 37,000  Level FlightAware ADS-B
Sun 04:26:00 PM 38.9140 -104.3730 89° East 515 593 37,000  Level FlightAware ADS-B
Sun 04:26:06 PM 38.9138 -104.3525 91° East 515 593 37,000  Level FlightAware ADS-B (GIB / LXGB)
Sun 04:26:57 PM 38.9142 -104.1997 90° East 515 593 37,000  Level FlightAware ADS-B (GIB / LXGB)
Sun 04:27:44 PM 38.9140 -104.0530 90° East 515 593 37,000  Level FlightAware ADS-B
Sun 04:28:20 PM 38.9150 -103.9450 89° East 516 594 37,000  Level FlightAware ADS-B
Sun 04:28:52 PM 38.9150 -103.8470 90° East 515 593 37,000  Level FlightAware ADS-B
Sun 04:29:28 PM 38.9150 -103.7400 90° East 516 594 37,000  Level FlightAware ADS-B
Sun 04:29:45 PM 38.9148 -103.6881 90° East 516 594 37,000  Level FlightAware ADS-B (AAL / EKYT)
Sun 04:30:51 PM 38.9151 -103.4839 90° East 517 595 37,000  Level FlightAware ADS-B (AAL / EKYT)
Sun 04:31:28 PM 38.9153 -103.3693 90° East 518 596 37,000  Level FlightAware ADS-B (AAL / EKYT)
Sun 04:31:58 PM 38.9150 -103.2770 90° East 519 597 37,000  Level FlightAware ADS-B
Sun 04:32:32 PM 38.9150 -103.1740 90° East 519 597 37,000  Level FlightAware ADS-B
Sun 04:33:02 PM 38.9150 -103.0800 90° East 518 596 37,000  Level FlightAware ADS-B
Sun 04:33:40 PM 38.9150 -102.9630 90° East 519 597 37,000  Level FlightAware ADS-B
Sun 04:34:14 PM 38.9150 -102.8610 90° East 520 598 37,000  Level FlightAware ADS-B
Sun 04:34:54 PM 38.9140 -102.7380 91° East 520 598 37,000  Level FlightAware ADS-B
Sun 04:35:24 PM 38.9140 -102.6490 90° East 520 598 37,000  Level FlightAware ADS-B
Sun 04:35:30 PM 38.9153 -103.0710 270° West 520 598 37,000  Level FlightAware ADS-B (AAL / EKYT)
Sun 04:36:34 PM 38.9130 -102.4330 90° East 520 598 37,000  Level FlightAware ADS-B
Sun 04:37:11 PM 38.9120 -102.3150 91° East 520 598 37,000  Level FlightAware ADS-B
Sun 04:37:46 PM 38.9110 -102.2060 91° East 520 598 37,000  Level FlightAware ADS-B
Sun 04:38:21 PM 38.9100 -102.1010 91° East 520 598 37,000  Level FlightAware ADS-B
Sun 04:38:57 PM 38.9090 -101.9890 91° East 519 597 37,000  Level FlightAware ADS-B
Sun 04:39:34 PM 38.9070 -101.8790 91° East 518 596 37,000  Level FlightAware ADS-B
Sun 04:40:05 PM 38.9060 -101.7810 91° East 518 596 37,000  Level FlightAware ADS-B
Sun 04:40:41 PM 38.9050 -101.6720 91° East 517 595 37,000  Level FlightAware ADS-B
Sun 04:41:16 PM 38.9030 -101.5630 91° East 517 595 37,000  Level FlightAware ADS-B
Sun 04:41:52 PM 38.9020 -101.4530 91° East 516 594 37,000  Level FlightAware ADS-B
Sun 04:42:27 PM 38.9000 -101.3480 91° East 516 594 37,000  Level FlightAware ADS-B
Sun 04:43:00 PM 38.8980 -101.2460 91° East 516 594 37,000  Level FlightAware ADS-B
Sun 04:43:37 PM 38.8960 -101.1380 91° East 517 595 37,000  Level FlightAware ADS-B
Sun 04:44:10 PM 38.8940 -101.0420 92° East 518 596 37,000  Level FlightAware ADS-B
Sun 04:44:46 PM 38.8920 -100.9240 91° East 518 596 37,000  Level FlightAware ADS-B
Sun 04:45:23 PM 38.8900 -100.8070 91° East 519 597 37,000  Level FlightAware ADS-B
Sun 04:45:56 PM 38.8880 -100.7090 91° East 519 597 37,000  Level FlightAware ADS-B
Sun 04:46:32 PM 38.8850 -100.5940 92° East 520 598 37,000  Level FlightAware ADS-B
Sun 04:47:05 PM 38.8830 -100.4940 91° East 520 598 37,000  Level FlightAware ADS-B
Sun 04:47:42 PM 38.8800 -100.3800 92° East 521 600 37,000  Level FlightAware ADS-B
Sun 04:48:16 PM 38.8770 -100.2770 92° East 522 601 37,000  Level FlightAware ADS-B
Sun 04:48:49 PM 38.8750 -100.1760 91° East 522 601 37,000  Level FlightAware ADS-B
Sun 04:49:35 PM 38.8730 -100.0540 91° East 523 602 37,000  Level FlightAware ADS-B
Sun 04:50:13 PM 38.8710 -99.9530 91° East 523 602 37,000  Level FlightAware ADS-B
Sun 04:50:52 PM 38.8700 -99.8500 91° East 523 602 37,000  Level FlightAware ADS-B
Sun 04:51:26 PM 38.8690 -99.7610 91° East 523 602 37,000  Level FlightAware ADS-B
Sun 04:52:04 PM 38.8670 -99.6600 91° East 523 602 37,000  Level FlightAware ADS-B
Sun 04:52:41 PM 38.8660 -99.5630 91° East 523 602 37,000  Level FlightAware ADS-B
Sun 04:53:18 PM 38.8650 -99.4650 91° East 523 602 37,000  Level FlightAware ADS-B
Sun 04:53:52 PM 38.8640 -99.3750 91° East 523 602 37,000  Level FlightAware ADS-B
Sun 04:54:28 PM 38.8620 -99.2800 92° East 523 602 37,000  Level FlightAware ADS-B
Sun 04:55:05 PM 38.8610 -99.1820 91° East 523 602 37,000  Level FlightAware ADS-B
Sun 04:55:42 PM 38.8600 -99.0850 91° East 523 602 37,000  Level FlightAware ADS-B
Sun 04:56:19 PM 38.8580 -98.9870 91° East 523 602 37,000  Level FlightAware ADS-B
Sun 04:57:13 PM 38.9220 -98.6280 77° East 528 608 37,000  Level FlightAware ADS-B
Sun 04:57:45 PM 38.9330 -98.5180 83° East 529 609 37,000  Level FlightAware ADS-B
Sun 04:58:27 PM 38.9480 -98.3870 82° East 530 610 37,000  Level FlightAware ADS-B
Sun 04:59:05 PM 38.9610 -98.2670 82° East 531 611 37,000  Level FlightAware ADS-B
Sun 04:59:37 PM 38.9720 -98.1670 82° East 531 611 37,000  Level FlightAware ADS-B
Sun 05:00:18 PM 38.9850 -98.0390 83° East 532 612 37,000  Level FlightAware ADS-B
Sun 05:00:49 PM 38.9960 -97.9400 82° East 532 612 37,000  Level FlightAware ADS-B
Sun 05:01:27 PM 39.0080 -97.8220 83° East 532 612 37,000  Level FlightAware ADS-B
Sun 05:02:03 PM 39.0190 -97.7100 83° East 532 612 37,000  Level FlightAware ADS-B
Sun 05:02:35 PM 39.0300 -97.6090 82° East 532 612 37,000  Level FlightAware ADS-B
Sun 05:03:11 PM 39.0410 -97.4960 83° East 532 612 37,000  Level FlightAware ADS-B
Sun 05:03:35 PM 39.0487 -97.4197 83° East 532 612 37,000  Level FlightAware ADS-B
Sun 05:04:27 PM 39.0650 -97.2600 82° East 533 613 37,000  Level FlightAware ADS-B
Sun 05:04:55 PM 39.0730 -97.1850 82° East 533 613 37,000  Level FlightAware ADS-B
Sun 05:05:15 PM 39.0792 -97.1099 84° East 534 615 37,000  Level FlightAware ADS-B
Sun 05:05:45 PM 39.0888 -97.0109 83° East 534 615 37,000  Level FlightAware ADS-B
Sun 05:06:39 PM 39.1050 -96.8410 83° East 532 612 37,000  Level FlightAware ADS-B
Sun 05:07:19 PM 39.1170 -96.7170 83° East 532 612 37,000  Level FlightAware ADS-B
Sun 05:07:51 PM 39.1260 -96.6220 83° East 532 612 37,000  Level FlightAware ADS-B
Sun 05:08:27 PM 39.1370 -96.5040 83° East 532 612 37,000  Level FlightAware ADS-B
Sun 05:09:05 PM 39.1480 -96.3840 83° East 531 611 37,000  Level FlightAware ADS-B
Sun 05:09:33 PM 39.1550 -96.3010 84° East 531 611 37,000  Level FlightAware ADS-B
Sun 05:10:15 PM 39.1660 -96.1740 84° East 532 612 37,000  Level FlightAware ADS-B
Sun 05:10:52 PM 39.1730 -96.1010 83° East 532 612 37,000  Level FlightAware ADS-B
Sun 05:11:28 PM 39.1830 -96.0040 82° East 532 612 37,000  Level FlightAware ADS-B
Sun 05:11:59 PM 39.1960 -95.8370 84° East 533 613 37,000  Level FlightAware ADS-B
Sun 05:12:37 PM 39.2060 -95.7210 84° East 534 615 37,000  Level FlightAware ADS-B
Sun 05:13:09 PM 39.2150 -95.6170 84° East 535 616 37,000  Level FlightAware ADS-B
Sun 05:13:41 PM 39.2230 -95.5230 84° East 536 617 37,000  Level FlightAware ADS-B
Sun 05:14:20 PM 39.2330 -95.3990 84° East 535 616 37,000  Level FlightAware ADS-B
Sun 05:14:55 PM 39.2420 -95.2820 84° East 535 616 37,000  Level FlightAware ADS-B
Sun 05:15:32 PM 39.2520 -95.1670 84° East 536 617 37,000  Level FlightAware ADS-B
Sun 05:15:49 PM 39.2562 -95.1105 84° East 537 618 37,000  Level FlightAware ADS-B
Sun 05:16:42 PM 39.2690 -94.9420 84° East 537 618 37,000  Level FlightAware ADS-B
Sun 05:17:14 PM 39.2771 -94.8426 84° East 538 619 37,000  Level FlightAware ADS-B
Sun 05:17:50 PM 39.2830 -94.7230 86° East 537 618 37,000  Level FlightAware ADS-B
Sun 05:18:25 PM 39.2810 -94.6210 91° East 536 617 37,000  Level FlightAware ADS-B
Sun 05:18:46 PM 39.2784 -94.5570 93° East 537 618 37,000  Level FlightAware ADS-B
Sun 05:19:35 PM 39.2710 -94.3940 93° East 536 617 37,000  Level FlightAware ADS-B
Sun 05:19:47 PM 39.2753 -94.4827 274° West 537 618 37,000  Level FlightAware ADS-B
Sun 05:20:54 PM 39.2600 -94.1420 93° East 537 618 37,000  Level FlightAware ADS-B
Sun 05:21:27 PM 39.2550 -94.0310 93° East 536 617 37,000  Level FlightAware ADS-B
Sun 05:22:04 PM 39.2500 -93.9140 93° East 535 616 37,000  Level FlightAware ADS-B
Sun 05:22:39 PM 39.2440 -93.8020 94° East 535 616 37,000  Level FlightAware ADS-B
Sun 05:23:20 PM 39.2380 -93.6710 93° East 535 616 37,000  Level FlightAware ADS-B
Sun 05:23:55 PM 39.2330 -93.5610 93° East 535 616 37,000  Level FlightAware ADS-B
Sun 05:24:31 PM 39.2270 -93.4450 94° East 536 617 37,000  Level FlightAware ADS-B
Sun 05:25:02 PM 39.2220 -93.3490 94° East 536 617 37,000  Level FlightAware ADS-B
Sun 05:25:40 PM 39.2150 -93.2260 94° East 536 617 37,000  Level FlightAware ADS-B
Sun 05:26:09 PM 39.2110 -93.1360 93° East 536 617 37,000  Level FlightAware ADS-B
Sun 05:26:49 PM 39.2040 -93.0090 94° East 535 616 37,000  Level FlightAware ADS-B
Sun 05:27:25 PM 39.1980 -92.8930 94° East 535 616 37,000  Level FlightAware ADS-B
Sun 05:28:00 PM 39.1910 -92.7840 95° East 534 615 37,000  Level FlightAware ADS-B
Sun 05:28:36 PM 39.1850 -92.6700 94° East 534 615 37,000  Level FlightAware ADS-B
Sun 05:29:25 PM 39.1760 -92.5130 94° East 534 615 37,000  Level FlightAware ADS-B
Sun 05:29:58 PM 39.1690 -92.4080 95° East 535 616 37,000  Level FlightAware ADS-B
Sun 05:30:34 PM 39.1630 -92.2940 94° East 534 615 37,000  Level FlightAware ADS-B
Sun 05:31:10 PM 39.1560 -92.1830 95° East 534 615 37,000  Level FlightAware ADS-B
Sun 05:31:42 PM 39.1490 -92.0810 95° East 534 615 37,000  Level FlightAware ADS-B
Sun 05:32:21 PM 39.1420 -91.9570 94° East 535 616 37,000  Level FlightAware ADS-B
Sun 05:32:53 PM 39.1350 -91.8540 95° East 535 616 37,000  Level FlightAware ADS-B
Sun 05:33:28 PM 39.1280 -91.7450 95° East 536 617 37,000  Level FlightAware ADS-B
Sun 05:34:05 PM 39.1200 -91.6280 95° East 536 617 37,000  Level FlightAware ADS-B
Sun 05:34:37 PM 39.1130 -91.5220 95° East 538 619 37,000  Level FlightAware ADS-B
Sun 05:35:15 PM 39.1050 -91.4070 95° East 538 619 37,000  Level FlightAware ADS-B
Sun 05:35:46 PM 39.0980 -91.3040 95° East 538 619 37,000  Level FlightAware ADS-B
Sun 05:36:26 PM 39.0890 -91.1800 95° East 537 618 37,000  Level FlightAware ADS-B
Sun 05:37:01 PM 39.0810 -91.0670 95° East 537 618 37,000  Level FlightAware ADS-B
Sun 05:37:33 PM 39.0740 -90.9650 95° East 537 618 37,000  Level FlightAware ADS-B
Sun 05:38:07 PM 39.0660 -90.8560 95° East 536 617 37,000  Level FlightAware ADS-B
Sun 05:38:40 PM 39.0580 -90.7500 96° East 536 617 37,000  Level FlightAware ADS-B
Sun 05:39:14 PM 39.0500 -90.6470 96° East 536 617 37,000  Level FlightAware ADS-B
Sun 05:39:51 PM 39.0410 -90.5260 95° East 535 616 37,000  Level FlightAware ADS-B
Sun 05:40:24 PM 39.0340 -90.4280 95° East 535 616 37,000  Level FlightAware ADS-B
Sun 05:41:13 PM 39.0220 -90.2710 96° East 536 617 37,000  Level FlightAware ADS-B
Sun 05:41:52 PM 39.0120 -90.1530 96° East 537 618 37,000  Level FlightAware ADS-B
Sun 05:42:38 PM 39.0020 -90.0130 95° East 537 618 37,000  Level FlightAware ADS-B
Sun 05:43:15 PM 39.0000 -89.9810 95° East 537 618 37,000  Level FlightAware ADS-B
Sun 05:43:31 PM 39.0240 -89.8290 78° East 544 626 37,000  Level FlightAware ADS-B
Sun 05:44:06 PM 39.0390 -89.7200 80° East 544 626 37,000  Level FlightAware ADS-B
Sun 05:44:41 PM 39.0560 -89.6060 79° East 545 627 37,000  Level FlightAware ADS-B
Sun 05:45:15 PM 39.0710 -89.4970 80° East 545 627 37,000  Level FlightAware ADS-B
Sun 05:45:48 PM 39.0850 -89.3950 80° East 546 628 37,000  Level FlightAware ADS-B
Sun 05:46:24 PM 39.1010 -89.2810 80° East 547 629 37,000  Level FlightAware ADS-B
Sun 05:46:57 PM 39.1150 -89.1720 81° East 547 629 37,000  Level FlightAware ADS-B
Sun 05:47:36 PM 39.1330 -89.0450 80° East 548 631 37,000  Level FlightAware ADS-B
Sun 05:48:11 PM 39.1470 -88.9380 80° East 547 629 37,000  Level FlightAware ADS-B
Sun 05:48:43 PM 39.1610 -88.8300 80° East 547 629 37,000  Level FlightAware ADS-B
Sun 05:49:18 PM 39.1750 -88.7230 80° East 547 629 37,000  Level FlightAware ADS-B
Sun 05:49:57 PM 39.1920 -88.5950 80° East 547 629 37,000  Level FlightAware ADS-B
Sun 05:50:32 PM 39.2060 -88.4850 81° East 547 629 37,000  Level FlightAware ADS-B
Sun 05:51:02 PM 39.2190 -88.3870 80° East 547 629 37,000  Level FlightAware ADS-B
Sun 05:51:42 PM 39.2360 -88.2550 81° East 548 631 37,000  Level FlightAware ADS-B
Sun 05:52:15 PM 39.2490 -88.1500 81° East 548 631 37,000  Level FlightAware ADS-B
Sun 05:52:48 PM 39.2630 -88.0430 80° East 548 631 37,000  Level FlightAware ADS-B
Sun 05:53:26 PM 39.2780 -87.9200 81° East 549 632 37,000  Level FlightAware ADS-B
Sun 05:54:03 PM 39.2930 -87.8030 81° East 549 632 37,000  Level FlightAware ADS-B
Sun 05:54:38 PM 39.3070 -87.6880 81° East 549 632 37,000  Level FlightAware ADS-B
Sun 05:55:11 PM 39.3200 -87.5820 81° East 550 633 37,000  Level FlightAware ADS-B
Sun 05:55:46 PM 39.3330 -87.4670 82° East 550 633 37,000  Level FlightAware ADS-B
Sun 05:56:19 PM 39.3450 -87.3670 81° East 549 632 37,000  Level FlightAware ADS-B
Sun 05:56:56 PM 39.3600 -87.2410 81° East 549 632 37,000  Level FlightAware ADS-B
Sun 05:57:33 PM 39.3740 -87.1250 81° East 550 633 37,000  Level FlightAware ADS-B
Sun 05:58:04 PM 39.3860 -87.0210 81° East 549 632 37,000  Level FlightAware ADS-B
Sun 05:58:43 PM 39.4000 -86.8990 82° East 549 632 37,000  Level FlightAware ADS-B
Sun 05:59:16 PM 39.4130 -86.7890 81° East 548 631 37,000  Level FlightAware ADS-B
Sun 05:59:51 PM 39.4260 -86.6770 81° East 547 629 37,000  Level FlightAware ADS-B
Sun 06:00:29 PM 39.4390 -86.5590 82° East 547 629 37,000  Level FlightAware ADS-B
Sun 06:00:41 PM 39.4470 -86.5170 76° East 547 629 37,000  Level FlightAware ADS-B
Sun 06:01:11 PM 39.4800 -86.4290 64° Northeast 543 625 37,000  Level FlightAware ADS-B
Sun 06:01:44 PM 39.5180 -86.3340 63° Northeast 543 625 37,000  Level FlightAware ADS-B
Sun 06:02:20 PM 39.5590 -86.2260 64° Northeast 544 626 37,000  Level FlightAware ADS-B
Sun 06:02:51 PM 39.5920 -86.1370 64° Northeast 544 626 37,000  Level FlightAware ADS-B
Sun 06:03:27 PM 39.6340 -86.0300 63° Northeast 543 625 37,000  Level FlightAware ADS-B
Sun 06:04:02 PM 39.6750 -85.9300 62° Northeast 543 625 37,000  Level FlightAware ADS-B
Sun 06:04:41 PM 39.7210 -85.8190 62° Northeast 543 625 37,000  Level FlightAware ADS-B
Sun 06:05:14 PM 39.7600 -85.7240 62° Northeast 543 625 37,000  Level FlightAware ADS-B
Sun 06:05:48 PM 39.7990 -85.6290 62° Northeast 543 625 37,000  Level FlightAware ADS-B
Sun 06:06:26 PM 39.8420 -85.5240 62° Northeast 543 625 37,000  Level FlightAware ADS-B
Sun 06:06:58 PM 39.8820 -85.4250 62° Northeast 543 625 37,000  Level FlightAware ADS-B
Sun 06:07:36 PM 39.9270 -85.3140 62° Northeast 543 625 37,000  Level FlightAware ADS-B
Sun 06:08:07 PM 39.9620 -85.2270 62° Northeast 543 625 37,000  Level FlightAware ADS-B
Sun 06:08:44 PM 40.0050 -85.1200 62° Northeast 534 615 37,000  Level FlightAware ADS-B
Sun 06:09:21 PM 40.0480 -85.0140 62° Northeast 529 609 37,000  Level FlightAware ADS-B
Sun 06:09:53 PM 40.0840 -84.9250 62° Northeast 528 608 37,000  Level FlightAware ADS-B
Sun 06:10:28 PM 40.1230 -84.8260 63° Northeast 527 606 37,000  Level FlightAware ADS-B
Sun 06:11:03 PM 40.1630 -84.7270 62° Northeast 528 608 37,000  Level FlightAware ADS-B
Sun 06:11:39 PM 40.2030 -84.6250 63° Northeast 528 608 37,000  Level FlightAware ADS-B
Sun 06:12:11 PM 40.2390 -84.5350 62° Northeast 528 608 37,000  Level FlightAware ADS-B
Sun 06:12:49 PM 40.2810 -84.4280 63° Northeast 528 608 37,000  Level FlightAware ADS-B
Sun 06:13:21 PM 40.3170 -84.3370 63° Northeast 528 608 37,000  Level FlightAware ADS-B
Sun 06:13:57 PM 40.3670 -84.2420 55° Northeast 519 597 37,000  Level FlightAware ADS-B
Sun 06:14:33 PM 40.4210 -84.1540 51° Northeast 519 597 37,000  Level FlightAware ADS-B
Sun 06:15:11 PM 40.4780 -84.0630 51° Northeast 519 597 37,000  Level FlightAware ADS-B
Sun 06:15:43 PM 40.5270 -83.9850 50° Northeast 520 598 37,000  Level FlightAware ADS-B
Sun 06:16:18 PM 40.5810 -83.8990 50° Northeast 519 597 37,000  Level FlightAware ADS-B
Sun 06:16:56 PM 40.6400 -83.8060 50° Northeast 519 597 37,000  Level FlightAware ADS-B
Sun 06:17:30 PM 40.6920 -83.7240 50° Northeast 519 597 37,000  Level FlightAware ADS-B
Sun 06:18:04 PM 40.7440 -83.6410 50° Northeast 518 596 37,000  Level FlightAware ADS-B
Sun 06:18:38 PM 40.7940 -83.5620 50° Northeast 516 594 37,000  Level FlightAware ADS-B
Sun 06:19:16 PM 40.8530 -83.4690 50° Northeast 514 592 37,000  Level FlightAware ADS-B
Sun 06:19:48 PM 40.9020 -83.3930 50° Northeast 514 592 37,000  Level FlightAware ADS-B
Sun 06:20:24 PM 40.9570 -83.3060 50° Northeast 514 592 37,000  Level FlightAware ADS-B
Sun 06:20:58 PM 41.0100 -83.2230 50° Northeast 513 590 37,000  Level FlightAware ADS-B
Sun 06:21:32 PM 41.0610 -83.1430 50° Northeast 513 590 37,000  Level FlightAware ADS-B
Sun 06:22:08 PM 41.1180 -83.0540 50° Northeast 514 592 37,000  Level FlightAware ADS-B
Sun 06:22:40 PM 41.1660 -82.9790 50° Northeast 514 592 37,000  Level FlightAware ADS-B
Sun 06:23:18 PM 41.2200 -82.8860 52° Northeast 519 597 37,000  Level FlightAware ADS-B
Sun 06:23:52 PM 41.2600 -82.7860 62° Northeast 525 604 37,000  Level FlightAware ADS-B
Sun 06:24:42 PM 41.3010 -82.6420 69° East 528 608 37,000  Level FlightAware ADS-B
Sun 06:25:16 PM 41.3310 -82.5320 70° East 528 608 37,000  Level FlightAware ADS-B
Sun 06:25:54 PM 41.3610 -82.4200 70° East 528 608 37,000  Level FlightAware ADS-B
Sun 06:26:30 PM 41.3910 -82.3060 71° East 528 608 37,000  Level FlightAware ADS-B
Sun 06:27:07 PM 41.4210 -82.1940 70° East 529 609 37,000  Level FlightAware ADS-B
Sun 06:27:46 PM 41.4510 -82.0820 70° East 528 608 37,000  Level FlightAware ADS-B
Sun 06:28:22 PM 41.4820 -81.9640 71° East 527 606 37,000  Level FlightAware ADS-B
Sun 06:28:54 PM 41.5080 -81.8640 71° East 527 606 37,000  Level FlightAware ADS-B
Sun 06:29:30 PM 41.5370 -81.7540 71° East 527 606 37,000  Level FlightAware ADS-B
Sun 06:30:07 PM 41.5670 -81.6390 71° East 525 604 37,000  Level FlightAware ADS-B
Sun 06:30:37 PM 41.5910 -81.5480 71° East 525 604 37,000  Level FlightAware ADS-B
Sun 06:31:15 PM 41.6200 -81.4330 71° East 526 605 37,000  Level FlightAware ADS-B
Sun 06:31:52 PM 41.6490 -81.3210 71° East 525 604 37,000  Level FlightAware ADS-B
Sun 06:32:25 PM 41.6760 -81.2180 71° East 525 604 37,000  Level FlightAware ADS-B
Sun 06:32:59 PM 41.7020 -81.1140 71° East 524 603 37,000  Level FlightAware ADS-B
Sun 06:33:34 PM 41.7290 -81.0070 71° East 524 603 37,000  Level FlightAware ADS-B
Sun 06:34:10 PM 41.7570 -80.8970 71° East 524 603 37,000  Level FlightAware ADS-B
Sun 06:34:48 PM 41.7860 -80.7830 71° East 524 603 37,000  Level FlightAware ADS-B
Sun 06:35:24 PM 41.8250 -80.6810 63° Northeast 521 600 37,000  Level FlightAware ADS-B
Sun 06:35:59 PM 41.8660 -80.5780 62° Northeast 521 600 37,000  Level FlightAware ADS-B
Sun 06:36:37 PM 41.9100 -80.4690 61° Northeast 520 598 37,000  Level FlightAware ADS-B
Sun 06:37:10 PM 41.9470 -80.3750 62° Northeast 522 601 37,000  Level FlightAware ADS-B
Sun 06:37:35 PM 41.9660 -80.2970 72° East 524 603 37,000  Level FlightAware ADS-B
Sun 06:38:08 PM 41.9750 -80.1910 83° East 523 602 37,000  Level FlightAware ADS-B
Sun 06:38:40 PM 41.9720 -80.0990 92° East 521 600 37,000  Level FlightAware ADS-B
Sun 06:39:17 PM 41.9670 -79.9810 93° East 522 601 37,000  Level FlightAware ADS-B
Sun 06:39:54 PM 41.9620 -79.8510 93° East 530 610 37,000  Level FlightAware ADS-B
Sun 06:40:29 PM 41.9570 -79.7360 93° East 533 613 37,000  Level FlightAware ADS-B
Sun 06:41:02 PM 41.9520 -79.6260 93° East 536 617 37,000  Level FlightAware ADS-B
Sun 06:41:40 PM 41.9460 -79.5020 94° East 536 617 37,000  Level FlightAware ADS-B
Sun 06:42:12 PM 41.9410 -79.3930 93° East 537 618 37,000  Level FlightAware ADS-B
Sun 06:42:48 PM 41.9350 -79.2760 94° East 537 618 37,000  Level FlightAware ADS-B
Sun 06:43:24 PM 41.9290 -79.1560 94° East 538 619 37,000  Level FlightAware ADS-B
Sun 06:43:58 PM 41.9240 -79.0390 93° East 538 619 37,000  Level FlightAware ADS-B
Sun 06:44:34 PM 41.9190 -78.9260 93° East 539 620 37,000  Level FlightAware ADS-B
Sun 06:45:10 PM 41.9130 -78.8020 94° East 539 620 37,000  Level FlightAware ADS-B
Sun 06:45:42 PM 41.9090 -78.7010 93° East 538 619 37,000  Level FlightAware ADS-B
Sun 06:46:18 PM 41.9030 -78.5860 94° East 538 619 37,000  Level FlightAware ADS-B
Sun 06:46:53 PM 41.8970 -78.4640 94° East 538 619 37,000  Level FlightAware ADS-B
Sun 06:47:29 PM 41.8910 -78.3380 94° East 536 617 37,000  Level FlightAware ADS-B
Sun 06:48:06 PM 41.8850 -78.2240 94° East 535 616 37,000  Level FlightAware ADS-B
Sun 06:48:42 PM 41.8780 -78.0960 94° East 535 616 37,000  Level FlightAware ADS-B
Sun 06:49:19 PM 41.8720 -77.9790 94° East 535 616 37,000  Level FlightAware ADS-B
Sun 06:49:56 PM 41.8600 -77.8530 97° East 532 612 37,000  Level FlightAware ADS-B
Sun 06:50:28 PM 41.8380 -77.7510 106° East 529 609 37,000  Level FlightAware ADS-B
Sun 06:51:04 PM 41.8110 -77.6430 109° East 528 608 37,000  Level FlightAware ADS-B
Sun 06:51:40 PM 41.7810 -77.5330 110° East 527 606 37,000  Level FlightAware ADS-B
Sun 06:52:12 PM 41.7550 -77.4330 109° East 527 606 37,000  Level FlightAware ADS-B
Sun 06:52:50 PM 41.7230 -77.3160 110° East 527 606 37,000  Level FlightAware ADS-B
Sun 06:53:24 PM 41.6950 -77.2140 110° East 526 605 37,000  Level FlightAware ADS-B
Sun 06:54:06 PM 41.6610 -77.0880 110° East 527 606 37,000  Level FlightAware ADS-B
Sun 06:54:42 PM 41.6310 -76.9770 110° East 526 605 37,000  Level FlightAware ADS-B
Sun 06:55:15 PM 41.6040 -76.8770 110° East 525 604 37,000  Level FlightAware ADS-B
Sun 06:55:55 PM 41.5720 -76.7590 110° East 523 602 37,000  Level FlightAware ADS-B
Sun 06:56:26 PM 41.5470 -76.6660 110° East 523 602 37,000  Level FlightAware ADS-B
Sun 06:57:03 PM 41.5150 -76.5520 111° Southeast 524 603 37,000  Level FlightAware ADS-B
Sun 06:57:38 PM 41.4840 -76.4410 110° East 524 603 37,000  Level FlightAware ADS-B
Sun 06:58:12 PM 41.4570 -76.3410 110° East 524 603 37,000 -696 Level FlightAware ADS-B
Sun 06:58:47 PM 41.4270 -76.2340 110° East 523 602 36,200 -2,167 Descending FlightAware ADS-B
Sun 06:59:24 PM 41.3950 -76.1230 111° Southeast 529 609 34,400 -3,000 Descending FlightAware ADS-B
Sun 06:59:59 PM 41.3640 -76.0120 110° East 530 610 32,600 -3,042 Descending FlightAware ADS-B
Sun 07:00:35 PM 41.3330 -75.9030 111° Southeast 530 610 30,800 -2,743 Descending FlightAware ADS-B
Sun 07:01:09 PM 41.3050 -75.8020 110° East 520 598 29,400 -2,400 Descending FlightAware ADS-B
Sun 07:01:45 PM 41.2730 -75.6940 111° Southeast 507 583 28,000 -2,250 Descending FlightAware ADS-B
Sun 07:02:21 PM 41.2410 -75.5950 113° Southeast 495 570 26,700 -2,149 Descending FlightAware ADS-B
Sun 07:02:52 PM 41.2160 -75.5180 113° Southeast 486 559 25,600 -2,294 Descending FlightAware ADS-B
Sun 07:03:29 PM 41.1790 -75.4080 114° Southeast 476 548 24,100 -2,055 Descending FlightAware ADS-B
Sun 07:04:05 PM 41.1470 -75.3130 114° Southeast 459 528 23,100 -943 Descending FlightAware ADS-B
Sun 07:04:39 PM 41.1190 -75.2300 114° Southeast 427 491 23,000 -90 Descending FlightAware ADS-B
Sun 07:05:12 PM 41.0930 -75.1550 115° Southeast 406 467 23,000 -448 Level FlightAware ADS-B
Sun 07:05:46 PM 41.0690 -75.0830 114° Southeast 402 463 22,500 -1,217 Descending FlightAware ADS-B
Sun 07:06:21 PM 41.0410 -75.0020 115° Southeast 397 457 21,600 -1,139 Descending FlightAware ADS-B
Sun 07:07:05 PM 41.0080 -74.9060 114° Southeast 389 448 21,000 -529 Descending FlightAware ADS-B
Sun 07:07:29 PM 40.9980 -74.8490 103° East 399 459 21,000  Level FlightAware ADS-B
Sun 07:07:41 PM 41.0000 -74.8180 85° East 402 463 21,000  Level FlightAware ADS-B
Sun 07:07:53 PM 41.0050 -74.7930 75° East 401 461 21,000  Level FlightAware ADS-B
Sun 07:08:31 PM 41.0280 -74.7040 71° East 402 463 21,000  Level FlightAware ADS-B
Sun 07:09:03 PM 41.0480 -74.6300 70° East 401 461 21,000  Level FlightAware ADS-B
Sun 07:09:39 PM 41.0700 -74.5500 70° East 400 460 21,000  Level FlightAware ADS-B
Sun 07:10:15 PM 41.0930 -74.4650 70° East 402 463 21,000  Level FlightAware ADS-B
Sun 07:10:51 PM 41.1170 -74.3790 70° East 403 464 21,000  Level FlightAware ADS-B
Sun 07:11:25 PM 41.1390 -74.2990 70° East 403 464 21,000 -400 Level FlightAware ADS-B
Sun 07:12:06 PM 41.1385 -74.1974 90° East 394 453 20,500 -906 Descending FlightAware ADS-B
Sun 07:12:18 PM 41.1309 -74.1734 113° Southeast 385 443 20,200 -1,579 Descending FlightAware ADS-B
Sun 07:12:25 PM 41.1236 -74.1574 121° Southeast 378 435 20,000 -1,459 Descending FlightAware ADS-B
Sun 07:12:55 PM 41.0886 -74.1127 136° Southeast 363 418 19,300 -1,333 Descending FlightAware ADS-B
Sun 07:13:01 PM 41.0801 -74.1062 150° Southeast 350 403 19,200 -400 Descending FlightAware ADS-B
Sun 07:13:40 PM 41.0213 -74.0879 167° South 325 374 19,000 -214 Descending FlightAware ADS-B
Sun 07:13:57 PM 40.9965 -74.0919 187° South 314 361 19,000  Level FlightAware ADS-B
Sun 07:14:21 PM 40.9645 -74.1070 200° South 305 351 19,000 -235 Level FlightAware ADS-B
Sun 07:14:48 PM 40.9272 -74.1190 194° South 318 366 18,800 -857 Descending FlightAware ADS-B
Sun 07:15:10 PM 40.8947 -74.1089 167° South 337 388 18,300 -1,500 Descending FlightAware ADS-B
Sun 07:15:40 PM 40.8510 -74.0854 158° South 336 387 17,500 -1,645 Descending FlightAware ADS-B
Sun 07:16:12 PM 40.8059 -74.0619 158° South 333 383 16,600 -1,452 Descending FlightAware ADS-B
Sun 07:16:42 PM 40.7628 -74.0397 159° South 329 379 16,000 -940 Descending FlightAware ADS-B
Sun 07:17:35 PM 40.6884 -74.0012 159° South 328 377 15,300 -1,071 Descending FlightAware ADS-B
Sun 07:18:06 PM 40.6460 -73.9790 158° South 323 372 14,500 -1,500 Descending FlightAware ADS-B
Sun 07:18:39 PM 40.6030 -73.9560 158° South 319 367 13,700 -1,391 Descending FlightAware ADS-B
Sun 07:19:15 PM 40.5510 -73.9300 159° South 312 359 12,900 -794 Descending FlightAware ADS-B
Sun 07:19:47 PM 40.5070 -73.9070 158° South 313 360 12,800 -783 Descending FlightAware ADS-B
Sun 07:20:24 PM 40.4610 -73.8850 160° South 306 352 12,000 -1,417 Descending FlightAware ADS-B
Sun 07:20:59 PM 40.4130 -73.8620 160° South 301 346 11,100 -1,500 Descending FlightAware ADS-B
Sun 07:21:20 PM 40.3840 -73.8470 158° South 304 350 10,600 -1,297 Descending FlightAware ADS-B
Sun 07:21:36 PM 40.3680 -73.8270 136° Southeast 311 358 10,300 -1,543 Descending FlightAware ADS-B
Sun 07:21:55 PM 40.3490 -73.8010 134° Southeast 314 361 9,700 -1,538 Descending FlightAware ADS-B
Sun 07:22:15 PM 40.3330 -73.7740 128° Southeast 318 366 9,300 -1,250 Descending FlightAware ADS-B
Sun 07:22:19 PM 40.3300 -73.7660 116° Southeast 319 367 9,200 -1,600 Descending FlightAware ADS-B
Sun 07:22:30 PM 40.3270 -73.7430 100° East 318 366 8,900 -1,333 Descending FlightAware ADS-B
Sun 07:22:55 PM 40.3340 -73.7000 78° East 310 357 8,400 -1,091 Descending FlightAware ADS-B
Sun 07:23:03 PM 40.3400 -73.6850 62° Northeast 302 348 8,300 -1,034 Descending FlightAware ADS-B
Sun 07:23:24 PM 40.3570 -73.6570 51° Northeast 297 342 7,900 -1,116 Descending FlightAware ADS-B
Sun 07:23:46 PM 40.3760 -73.6250 52° Northeast 292 336 7,500 -1,135 Descending FlightAware ADS-B
Sun 07:24:01 PM 40.3910 -73.6060 44° Northeast 285 328 7,200 -1,000 Descending FlightAware ADS-B
Sun 07:24:16 PM 40.4070 -73.5920 34° Northeast 277 319 7,000 -545 Descending FlightAware ADS-B
Sun 07:24:34 PM 40.4260 -73.5770 31° Northeast 271 312 6,900 -194 Descending FlightAware ADS-B
Sun 07:24:47 PM 40.4390 -73.5670 30° Northeast 266 306 6,900  Level FlightAware ADS-B
Sun 07:25:11 PM 40.4660 -73.5470 29° Northeast 268 308 6,900  Level FlightAware ADS-B
Sun 07:25:31 PM 40.4890 -73.5300 29° Northeast 268 308 6,900  Level FlightAware ADS-B
Sun 07:25:49 PM 40.5090 -73.5160 28° Northeast 269 310 6,900 -714 Level FlightAware ADS-B
Sun 07:26:13 PM 40.5340 -73.4970 30° Northeast 265 305 6,400 -1,304 Descending FlightAware ADS-B
Sun 07:26:35 PM 40.5580 -73.4790 30° Northeast 261 300 5,900 -1,286 Descending FlightAware ADS-B
Sun 07:26:55 PM 40.5780 -73.4650 28° Northeast 249 287 5,500 -1,000 Descending FlightAware ADS-B
Sun 07:27:17 PM 40.6000 -73.4480 30° Northeast 241 277 5,200 -837 Descending FlightAware ADS-B
Sun 07:27:38 PM 40.6190 -73.4330 31° Northeast 239 275 4,900 -429 Descending FlightAware ADS-B
Sun 07:27:59 PM 40.6390 -73.4180 30° Northeast 239 275 4,900  Level FlightAware ADS-B
Sun 07:28:19 PM 40.6590 -73.4030 30° Northeast 237 273 4,900  Level FlightAware ADS-B
Sun 07:28:43 PM 40.6820 -73.3860 29° Northeast 237 273 4,900  Level FlightAware ADS-B
Sun 07:29:01 PM 40.6990 -73.3730 30° Northeast 237 273 4,900  Level FlightAware ADS-B
Sun 07:29:09 PM 40.7070 -73.3690 21° North 231 266 4,900 -429 Level FlightAware ADS-B
Sun 07:29:15 PM 40.7140 -73.3680 North 226 260 4,800 -1,071 Descending FlightAware ADS-B
Sun 07:29:37 PM 40.7340 -73.3790 337° Northwest 215 247 4,400 -1,200 Descending FlightAware ADS-B
Sun 07:29:45 PM 40.7390 -73.3880 306° West 214 246 4,200 -1,200 Descending FlightAware ADS-B
Sun 07:30:07 PM 40.7510 -73.4080 308° West 204 235 3,800 -714 Descending FlightAware ADS-B
Sun 07:30:27 PM 40.7630 -73.4270 310° West 196 226 3,700 -450 Descending FlightAware ADS-B
Sun 07:30:47 PM 40.7730 -73.4450 306° West 184 212 3,500 -615 Descending FlightAware ADS-B
Sun 07:31:06 PM 40.7830 -73.4610 310° West 181 208 3,300 -615 Descending FlightAware ADS-B
Sun 07:31:26 PM 40.7930 -73.4780 308° West 170 196 3,100 -558 Descending FlightAware ADS-B
Sun 07:31:49 PM 40.8050 -73.4970 310° West 161 185 2,900 -308 Descending FlightAware ADS-B
Sun 07:32:05 PM 40.8120 -73.5090 308° West 164 189 2,900  Level FlightAware ADS-B
Sun 07:32:26 PM 40.8210 -73.5240 308° West 162 186 2,900  Level FlightAware ADS-B
Sun 07:32:45 PM 40.8310 -73.5410 308° West 161 185 2,900  Level FlightAware ADS-B
Sun 07:33:02 PM 40.8380 -73.5540 305° West 163 188 2,900  Level FlightAware ADS-B
Sun 07:33:06 PM 40.8390 -73.5570 294° West 162 186 2,900 -500 Level FlightAware ADS-B
Sun 07:33:14 PM 40.8410 -73.5650 288° West 160 184 2,800 -878 Descending FlightAware ADS-B
Sun 07:33:47 PM 40.8360 -73.5960 258° West 164 189 2,300 -818 Descending FlightAware ADS-B
Sun 07:33:58 PM 40.8310 -73.6040 230° Southwest 168 193 2,200 -783 Descending FlightAware ADS-B
Sun 07:34:10 PM 40.8240 -73.6130 224° Southwest 169 194 2,000 -545 Descending FlightAware ADS-B
Sun 07:34:31 PM 40.8100 -73.6270 217° Southwest 178 205 1,900 -146 Descending FlightAware ADS-B
Sun 07:34:51 PM 40.7960 -73.6380 211° Southwest 178 205 1,900  Level FlightAware ADS-B
Sun 07:35:14 PM 40.7790 -73.6500 208° Southwest 178 205 1,900  Level FlightAware ADS-B
Sun 07:35:33 PM 40.7650 -73.6610 211° Southwest 177 204 1,900  Level FlightAware ADS-B
Sun 07:36:07 PM 40.7440 -73.6770 210° Southwest 171 197 1,900 -102 Level FlightAware ADS-B
Sun 07:36:32 PM 40.7280 -73.6900 212° Southwest 163 188 1,800 -533 Descending FlightAware ADS-B
Sun 07:36:52 PM 40.7140 -73.7010 211° Southwest 152 175 1,500 -750 Descending FlightAware ADS-B
Sun 07:37:12 PM 40.7020 -73.7100 210° Southwest 136 157 1,300 -732 Descending FlightAware ADS-B
Sun 07:37:33 PM 40.6920 -73.7190 214° Southwest 140 161 1,000 -857 Descending FlightAware ADS-B
Sun 07:37:54 PM 40.6790 -73.7290 210° Southwest 142 163 700 -800 Descending FlightAware ADS-B
Sun 07:38:18 PM 40.6660 -73.7390 210° Southwest 139 160 400 -682 Descending FlightAware ADS-B
Sun 07:38:38 PM 40.6550 -73.7470 209° Southwest 136 157 200 -600 Descending FlightAware ADS-B
Sun 07:38:58 PM 40.6440 -73.7560 212° Southwest 134 154 -600 Descending FlightAware ADS-B
Sun 07:39:18 PM 40.6350 -73.7630 211° Southwest 74 85  Level FlightAware ADS-B

Login

Don't have an account? Register now (free) for customized features, flight alerts, and more!